createdAt,value
2022-10-11T00:01:48.658Z,87.68
2022-10-11T00:04:16.561Z,87.78
2022-10-11T00:06:44.371Z,87.67
2022-10-11T00:09:14.408Z,87.75
2022-10-11T00:11:42.986Z,87.81
2022-10-11T00:14:10.838Z,87.93
2022-10-11T00:16:41.461Z,88.73
2022-10-11T00:19:09.120Z,89.11
2022-10-11T00:21:37.066Z,89.78
2022-10-11T00:24:05.184Z,89.76
2022-10-11T00:26:34.283Z,89.26
2022-10-11T00:29:01.837Z,89.73
2022-10-11T00:31:34.711Z,89.55
2022-10-11T00:34:03.182Z,89.19
2022-10-11T00:36:30.976Z,88.93
2022-10-11T00:38:58.536Z,87.93
2022-10-11T00:41:26.280Z,87.70
2022-10-11T00:44:11.062Z,86.42
2022-10-11T00:46:39.684Z,86.34
2022-10-11T00:49:15.651Z,86.11
2022-10-11T00:51:48.721Z,85.83
2022-10-11T00:54:19.649Z,86.59
2022-10-11T00:56:51.293Z,87.12
2022-10-11T00:59:25.906Z,86.91
2022-10-11T01:01:53.667Z,86.90
2022-10-11T01:04:21.285Z,86.41
2022-10-11T01:06:50.456Z,86.65
2022-10-11T01:09:19.794Z,87.03
2022-10-11T01:11:49.433Z,86.97
2022-10-11T01:14:45.774Z,86.95
2022-10-11T01:17:22.604Z,86.98
2022-10-11T01:20:03.622Z,87.46
2022-10-11T01:22:51.930Z,87.98
2022-10-11T01:25:27.763Z,87.57
2022-10-11T01:28:15.847Z,87.59
2022-10-11T01:30:45.178Z,87.10
2022-10-11T01:33:28.365Z,87.03
2022-10-11T01:36:06.286Z,85.36
2022-10-11T01:38:38.915Z,84.62
2022-10-11T01:41:10.715Z,83.95
2022-10-11T01:43:39.886Z,84.40
2022-10-11T01:46:10.226Z,84.33
2022-10-11T01:48:48.109Z,84.00
2022-10-11T01:51:16.554Z,83.88
2022-10-11T01:54:00.266Z,83.67
2022-10-11T01:56:43.695Z,83.06
2022-10-11T01:59:23.083Z,83.35
2022-10-11T02:01:59.360Z,82.96
2022-10-11T02:04:32.127Z,82.48
2022-10-11T02:07:02.224Z,81.85
2022-10-11T02:09:36.235Z,80.95
2022-10-11T02:12:08.499Z,81.07
2022-10-11T02:14:40.576Z,80.51
2022-10-11T02:17:13.036Z,80.25
2022-10-11T02:19:45.769Z,79.80
2022-10-11T02:22:20.322Z,79.54
2022-10-11T02:24:52.588Z,80.27
2022-10-11T02:27:23.961Z,79.95
2022-10-11T02:29:53.520Z,79.83
2022-10-11T02:32:24.120Z,79.92
2022-10-11T02:34:54.949Z,79.81
2022-10-11T02:37:29.045Z,79.20
2022-10-11T02:40:04.036Z,79.13
2022-10-11T02:42:37.186Z,78.15
2022-10-11T02:45:11.271Z,78.61
2022-10-11T02:47:42.504Z,78.23
2022-10-11T02:50:12.412Z,78.52
2022-10-11T02:52:47.285Z,78.09
2022-10-11T02:55:14.852Z,77.84
2022-10-11T02:57:42.447Z,77.93
2022-10-11T03:00:11.302Z,78.13
2022-10-11T03:02:40.222Z,77.88
2022-10-11T03:05:08.628Z,77.79
2022-10-11T03:07:38.659Z,77.56
2022-10-11T03:10:07.966Z,77.62
2022-10-11T03:12:35.651Z,77.56
2022-10-11T03:15:03.565Z,76.96
2022-10-11T03:17:36.621Z,77.09
2022-10-11T03:20:07.652Z,76.91
2022-10-11T03:22:35.639Z,77.26
2022-10-11T03:25:04.644Z,77.59
2022-10-11T03:27:32.671Z,76.64
2022-10-11T03:30:00.744Z,76.98
2022-10-11T03:32:28.891Z,77.01
2022-10-11T03:34:56.623Z,77.49
2022-10-11T03:37:25.746Z,77.44
2022-10-11T03:39:53.420Z,77.61
2022-10-11T03:42:21.479Z,77.64
2022-10-11T03:44:51.316Z,77.18
2022-10-11T03:47:19.135Z,77.47
2022-10-11T03:49:46.802Z,77.23
2022-10-11T03:52:14.419Z,77.55
2022-10-11T03:54:43.389Z,77.65
2022-10-11T03:57:11.184Z,77.37
2022-10-11T03:59:38.775Z,77.17
2022-10-11T04:02:06.467Z,77.24
2022-10-11T04:04:34.400Z,77.03
2022-10-11T04:07:02.094Z,77.72
2022-10-11T04:09:30.052Z,77.79
2022-10-11T04:12:01.883Z,77.87
2022-10-11T04:14:29.765Z,78.31
2022-10-11T04:17:00.264Z,78.05
2022-10-11T04:19:28.835Z,77.71
2022-10-11T04:21:56.605Z,78.24
2022-10-11T04:24:29.268Z,78.26
2022-10-11T04:27:08.196Z,78.16
2022-10-11T04:29:38.599Z,78.22
2022-10-11T04:32:06.353Z,78.90
2022-10-11T04:34:34.098Z,78.54
2022-10-11T04:37:01.786Z,78.93
2022-10-11T04:39:29.505Z,78.48
2022-10-11T04:41:57.227Z,78.45
2022-10-11T04:44:26.259Z,78.54
2022-10-11T04:46:53.988Z,78.90
2022-10-11T04:49:21.916Z,79.10
2022-10-11T04:51:49.707Z,79.40
2022-10-11T04:54:17.655Z,79.19
2022-10-11T04:56:45.354Z,80.48
2022-10-11T04:59:13.101Z,80.21
2022-10-11T05:01:42.144Z,80.09
2022-10-11T05:04:09.754Z,79.84
2022-10-11T05:06:37.371Z,80.08
2022-10-11T05:09:05.123Z,79.86
2022-10-11T05:11:32.690Z,80.31
2022-10-11T05:14:00.612Z,80.07
2022-10-11T05:16:28.523Z,80.59
2022-10-11T05:18:57.492Z,82.18
2022-10-11T05:21:26.604Z,81.58
2022-10-11T05:23:56.182Z,81.03
2022-10-11T05:26:25.503Z,81.06
2022-10-11T05:28:53.453Z,82.15
2022-10-11T05:31:21.619Z,82.71
2022-10-11T05:33:49.577Z,83.78
2022-10-11T05:36:18.583Z,84.91
2022-10-11T05:38:49.130Z,85.63
2022-10-11T05:41:17.541Z,84.71
2022-10-11T05:43:45.903Z,83.73
2022-10-11T05:46:14.501Z,84.29
2022-10-11T05:48:42.086Z,84.57
2022-10-11T05:51:10.830Z,84.29
2022-10-11T05:53:40.581Z,84.74
2022-10-11T05:56:18.908Z,85.08
2022-10-11T05:58:46.569Z,84.75
2022-10-11T06:01:19.678Z,83.95
2022-10-11T06:03:47.543Z,83.66
2022-10-11T06:06:15.252Z,83.49
2022-10-11T06:08:53.302Z,81.78
2022-10-11T06:11:47.263Z,80.22
2022-10-11T06:14:27.799Z,78.36
2022-10-11T06:16:57.467Z,75.58
2022-10-11T06:19:33.233Z,73.48
2022-10-11T06:22:13.208Z,73.09
2022-10-11T06:25:32.741Z,71.15
2022-10-11T06:28:15.698Z,68.62
2022-10-11T06:30:47.779Z,65.91
2022-10-11T06:33:16.266Z,65.32
2022-10-11T06:35:43.885Z,63.72
2022-10-11T06:38:11.548Z,62.04
2022-10-11T06:40:39.485Z,61.25
2022-10-11T06:43:08.424Z,61.33
2022-10-11T06:45:36.397Z,59.61
2022-10-11T06:48:05.696Z,58.77
2022-10-11T06:50:58.035Z,58.19
2022-10-11T06:53:21.394Z,58.09
2022-10-11T06:55:49.276Z,56.32
2022-10-11T06:58:18.415Z,55.69
2022-10-11T07:00:46.162Z,54.12
2022-10-11T07:03:13.845Z,55.90
2022-10-11T07:05:41.469Z,55.82
2022-10-11T07:08:09.043Z,54.98
2022-10-11T07:10:37.491Z,52.85
2022-10-11T07:13:06.842Z,52.67
2022-10-11T07:15:41.083Z,51.85
2022-10-11T07:18:08.725Z,52.50
2022-10-11T07:20:37.167Z,55.14
2022-10-11T07:23:04.827Z,54.71
2022-10-11T07:25:32.426Z,55.46
2022-10-11T07:28:00.207Z,56.29
2022-10-11T07:30:27.964Z,57.91
2022-10-11T07:32:57.054Z,57.96
2022-10-11T07:35:24.814Z,56.25
2022-10-11T07:37:52.494Z,55.83
2022-10-11T07:40:20.351Z,56.32
2022-10-11T07:42:48.148Z,55.16
2022-10-11T07:45:15.875Z,55.87
2022-10-11T07:47:46.307Z,59.07
2022-10-11T07:50:15.354Z,59.85
2022-10-11T07:52:43.064Z,59.10
2022-10-11T07:55:10.859Z,59.16
2022-10-11T07:57:38.523Z,59.24
2022-10-11T08:00:07.880Z,58.09
2022-10-11T08:02:35.626Z,57.30
2022-10-11T08:05:03.396Z,57.20
2022-10-11T08:07:32.485Z,58.24
2022-10-11T08:10:00.672Z,58.36
2022-10-11T08:12:28.311Z,58.54
2022-10-11T08:14:56.193Z,59.85
2022-10-11T08:17:23.936Z,60.67
2022-10-11T08:19:51.773Z,59.01
2022-10-11T08:22:19.495Z,59.14
2022-10-11T08:24:50.167Z,60.07
2022-10-11T08:27:17.786Z,60.06
2022-10-11T08:29:45.773Z,59.76
2022-10-11T08:32:13.360Z,60.87
2022-10-11T08:34:40.915Z,61.09
2022-10-11T08:37:08.609Z,61.94
2022-10-11T08:39:36.524Z,64.67
2022-10-11T08:42:12.193Z,65.86
2022-10-11T08:45:09.056Z,66.55
2022-10-11T08:47:36.792Z,69.18
2022-10-11T08:50:06.392Z,69.02
2022-10-11T08:52:43.618Z,69.44
2022-10-11T08:55:19.150Z,69.40
2022-10-11T08:57:54.029Z,69.75
2022-10-11T09:00:22.848Z,69.87
2022-10-11T09:03:13.941Z,69.44
2022-10-11T09:05:55.342Z,69.53
2022-10-11T09:08:34.519Z,69.17
2022-10-11T09:11:09.901Z,69.51
2022-10-11T09:13:57.621Z,69.39
2022-10-11T09:16:37.809Z,70.40
2022-10-11T09:19:34.408Z,69.85
2022-10-11T09:22:10.313Z,70.02
2022-10-11T09:24:50.488Z,68.60
2022-10-11T09:27:33.221Z,69.59
2022-10-11T09:30:16.312Z,69.21
2022-10-11T09:32:47.382Z,69.13
2022-10-11T09:35:18.319Z,68.68
2022-10-11T09:37:55.032Z,67.85
2022-10-11T09:40:46.249Z,67.91
2022-10-11T09:43:14.166Z,68.27
2022-10-11T09:45:49.253Z,67.91
2022-10-11T09:48:21.169Z,65.51
2022-10-11T09:50:50.635Z,65.31
2022-10-11T09:53:19.318Z,66.02
2022-10-11T09:55:53.082Z,65.52
2022-10-11T09:58:30.272Z,66.18
2022-10-11T10:01:07.587Z,66.87
2022-10-11T10:03:37.663Z,66.52
2022-10-11T10:06:08.865Z,65.93
2022-10-11T10:08:37.594Z,65.37
2022-10-11T10:11:07.702Z,64.66
2022-10-11T10:13:44.032Z,64.04
2022-10-11T10:16:23.742Z,63.39
2022-10-11T10:18:54.216Z,64.01
2022-10-11T10:21:28.577Z,63.63
2022-10-11T10:23:57.731Z,64.19
2022-10-11T10:26:27.386Z,63.84
2022-10-11T10:29:01.281Z,64.28
2022-10-11T10:31:49.495Z,63.56
2022-10-11T10:34:28.790Z,64.75
2022-10-11T10:36:59.050Z,63.53
2022-10-11T10:39:34.248Z,64.49
2022-10-11T10:42:05.904Z,62.93
2022-10-11T10:44:33.653Z,63.13
2022-10-11T10:47:15.548Z,62.54
2022-10-11T10:49:54.150Z,64.06
2022-10-11T10:52:42.803Z,63.19
2022-10-11T10:55:22.278Z,62.15
2022-10-11T10:58:00.855Z,62.63
2022-10-11T11:00:37.424Z,59.95
2022-10-11T11:03:10.944Z,62.48
2022-10-11T11:05:46.573Z,63.36
2022-10-11T11:08:17.303Z,63.92
2022-10-11T11:10:51.648Z,62.55
2022-10-11T11:13:24.400Z,62.46
2022-10-11T11:16:04.119Z,62.22
2022-10-11T11:18:43.166Z,61.77
2022-10-11T11:21:31.800Z,61.88
2022-10-11T11:24:12.832Z,61.47
2022-10-11T11:26:45.540Z,62.38
2022-10-11T11:29:28.215Z,62.16
2022-10-11T11:32:10.639Z,59.57
2022-10-11T11:34:43.884Z,60.12
2022-10-11T11:37:23.481Z,59.74
2022-10-11T11:39:53.552Z,60.65
2022-10-11T11:42:25.930Z,58.69
2022-10-11T11:44:54.451Z,59.41
2022-10-11T11:47:28.201Z,59.35
2022-10-11T11:50:00.590Z,57.48
2022-10-11T11:52:34.177Z,57.99
2022-10-11T11:55:09.522Z,57.54
2022-10-11T11:57:48.823Z,55.66
2022-10-11T12:00:20.507Z,54.53
2022-10-11T12:02:56.428Z,52.50
2022-10-11T12:05:28.797Z,57.25
2022-10-11T12:08:00.762Z,57.13
2022-10-11T12:10:40.107Z,58.30
2022-10-11T12:13:21.484Z,56.66
2022-10-11T12:15:59.271Z,56.52
2022-10-11T12:18:27.591Z,52.93
2022-10-11T12:21:06.174Z,52.32
2022-10-11T12:23:46.002Z,51.87
2022-10-11T12:26:35.462Z,51.97
2022-10-11T12:29:28.871Z,50.17
2022-10-11T12:32:54.826Z,50.27
2022-10-11T12:35:58.054Z,50.31
2022-10-11T12:38:29.397Z,51.15
2022-10-11T12:41:00.604Z,51.09
2022-10-11T12:43:42.257Z,49.75
2022-10-11T12:46:40.215Z,49.84
2022-10-11T12:49:26.604Z,49.78
2022-10-11T12:52:01.178Z,52.29
2022-10-11T12:54:52.598Z,53.14
2022-10-11T12:57:59.107Z,52.52
2022-10-11T13:00:30.976Z,51.97
2022-10-11T13:03:04.932Z,53.21
2022-10-11T13:05:45.020Z,53.86
2022-10-11T13:08:19.828Z,53.33
2022-10-11T13:10:49.604Z,54.05
2022-10-11T13:13:23.051Z,53.85
2022-10-11T13:15:53.802Z,53.05
2022-10-11T13:18:24.628Z,51.41
2022-10-11T13:20:54.619Z,50.94
2022-10-11T13:23:25.184Z,49.98
2022-10-11T13:25:58.059Z,49.56
2022-10-11T13:28:25.880Z,50.35
2022-10-11T13:30:57.068Z,49.32
2022-10-11T13:33:32.038Z,50.61
2022-10-11T13:36:01.765Z,51.40
2022-10-11T13:38:31.926Z,50.94
2022-10-11T13:41:05.647Z,50.12
2022-10-11T13:43:34.661Z,49.94
2022-10-11T13:46:05.056Z,49.90
2022-10-11T13:48:39.712Z,48.70
2022-10-11T13:51:09.599Z,49.02
2022-10-11T13:53:37.381Z,48.50
2022-10-11T13:56:09.203Z,49.05
2022-10-11T13:58:40.447Z,50.12
2022-10-11T14:01:20.078Z,50.50
2022-10-11T14:03:50.176Z,49.17
2022-10-11T14:06:17.824Z,48.61
2022-10-11T14:08:48.938Z,49.34
2022-10-11T14:11:33.727Z,49.28
2022-10-11T14:14:01.894Z,50.93
2022-10-11T14:16:33.444Z,49.82
2022-10-11T14:19:10.427Z,50.07
2022-10-11T14:21:51.196Z,50.29
2022-10-11T14:24:19.390Z,50.54
2022-10-11T14:26:50.612Z,50.31
2022-10-11T14:29:23.179Z,49.35
2022-10-11T14:31:50.889Z,48.88
2022-10-11T14:34:20.895Z,48.68
2022-10-11T14:36:50.241Z,48.93
2022-10-11T14:39:19.941Z,49.31
2022-10-11T14:41:49.971Z,49.29
2022-10-11T14:44:18.303Z,49.44
2022-10-11T14:46:49.253Z,49.22
2022-10-11T14:49:18.963Z,48.47
2022-10-11T14:51:49.319Z,49.13
2022-10-11T14:54:18.826Z,49.08
2022-10-11T14:56:49.562Z,47.81
2022-10-11T14:59:21.173Z,48.12
2022-10-11T15:01:51.722Z,49.33
2022-10-11T15:04:19.630Z,50.18
2022-10-11T15:06:47.415Z,50.63
2022-10-11T15:09:16.925Z,50.05
2022-10-11T15:11:44.996Z,51.42
2022-10-11T15:14:14.055Z,50.55
2022-10-11T15:16:42.095Z,50.34
2022-10-11T15:19:14.755Z,51.19
2022-10-11T15:21:42.471Z,50.72
2022-10-11T15:24:10.350Z,51.32
2022-10-11T15:26:38.211Z,51.35
2022-10-11T15:29:09.597Z,50.83
2022-10-11T15:31:38.936Z,51.21
2022-10-11T15:34:06.904Z,51.42
2022-10-11T15:36:34.627Z,51.52
2022-10-11T15:39:02.678Z,51.03
2022-10-11T15:41:30.784Z,52.62
2022-10-11T15:43:58.446Z,51.83
2022-10-11T15:46:26.109Z,52.33
2022-10-11T15:48:55.514Z,52.41
2022-10-11T15:51:23.490Z,52.58
2022-10-11T15:53:51.241Z,53.10
2022-10-11T15:56:19.771Z,52.77
2022-10-11T15:58:47.801Z,52.73
2022-10-11T16:01:17.723Z,54.18
2022-10-11T16:03:46.507Z,53.90
2022-10-11T16:06:15.868Z,53.48
2022-10-11T16:08:43.577Z,54.30
2022-10-11T16:11:13.219Z,55.52
2022-10-11T16:13:41.074Z,55.08
2022-10-11T16:16:10.793Z,55.17
2022-10-11T16:18:39.435Z,54.87
2022-10-11T16:21:08.999Z,55.96
2022-10-11T16:23:38.960Z,55.60
2022-10-11T16:26:09.252Z,55.88
2022-10-11T16:28:37.780Z,55.92
2022-10-11T16:31:08.062Z,56.10
2022-10-11T16:33:35.749Z,56.86
2022-10-11T16:36:21.152Z,56.73
2022-10-11T16:38:50.125Z,57.30
2022-10-11T16:41:17.760Z,57.79
2022-10-11T16:43:45.545Z,58.84
2022-10-11T16:46:13.300Z,58.67
2022-10-11T16:48:40.915Z,59.29
2022-10-11T16:51:09.564Z,60.34
2022-10-11T16:53:37.758Z,61.13
2022-10-11T16:56:08.686Z,60.65
2022-10-11T16:58:37.478Z,61.14
2022-10-11T17:01:09.572Z,62.43
2022-10-11T17:03:37.690Z,63.19
2022-10-11T17:06:06.584Z,63.14
2022-10-11T17:08:35.109Z,63.22
2022-10-11T17:11:03.453Z,64.14
2022-10-11T17:13:32.632Z,64.68
2022-10-11T17:16:00.335Z,64.17
2022-10-11T17:18:37.508Z,63.93
2022-10-11T17:21:17.864Z,64.42
2022-10-11T17:23:45.679Z,65.21
2022-10-11T17:26:17.691Z,65.98
2022-10-11T17:28:47.479Z,65.39
2022-10-11T17:31:15.240Z,66.52
2022-10-11T17:33:42.938Z,64.49
2022-10-11T17:36:19.685Z,64.82
2022-10-11T17:38:47.570Z,65.18
2022-10-11T17:41:15.512Z,65.90
2022-10-11T17:43:43.514Z,65.52
2022-10-11T17:46:14.990Z,65.53
2022-10-11T17:48:44.474Z,65.95
2022-10-11T17:51:14.189Z,64.55
2022-10-11T17:53:42.747Z,64.13
2022-10-11T17:56:12.543Z,64.51
2022-10-11T17:58:40.732Z,64.55
2022-10-11T18:01:10.783Z,65.09
2022-10-11T18:03:40.515Z,64.62
2022-10-11T18:06:09.933Z,64.40
2022-10-11T18:08:40.560Z,64.26
2022-10-11T18:11:12.518Z,64.39
2022-10-11T18:13:42.929Z,64.81
2022-10-11T18:16:11.376Z,64.79
2022-10-11T18:18:41.103Z,65.28
2022-10-11T18:21:09.287Z,65.90
2022-10-11T18:23:38.403Z,65.89
2022-10-11T18:26:11.174Z,66.24
2022-10-11T18:28:39.195Z,66.50
2022-10-11T18:31:12.590Z,67.79
2022-10-11T18:33:45.404Z,68.06
2022-10-11T18:36:14.773Z,67.59
2022-10-11T18:38:46.913Z,68.06
2022-10-11T18:41:16.544Z,68.15
2022-10-11T18:43:50.192Z,69.01
2022-10-11T18:46:18.259Z,69.68
2022-10-11T18:48:49.511Z,69.14
2022-10-11T18:51:19.269Z,69.65
2022-10-11T18:53:47.731Z,70.37
2022-10-11T18:56:17.219Z,70.87
2022-10-11T18:58:45.809Z,72.13
2022-10-11T19:01:16.412Z,71.92
2022-10-11T19:03:44.729Z,71.78
2022-10-11T19:06:17.700Z,72.59
2022-10-11T19:08:46.413Z,73.08
2022-10-11T19:11:15.612Z,72.41
2022-10-11T19:13:44.100Z,73.00
2022-10-11T19:16:14.066Z,73.25
2022-10-11T19:18:44.649Z,74.05
2022-10-11T19:21:14.428Z,74.33
2022-10-11T19:23:43.464Z,74.67
2022-10-11T19:26:15.142Z,74.49
2022-10-11T19:28:43.546Z,74.65
2022-10-11T19:31:14.293Z,74.86
2022-10-11T19:33:41.987Z,75.53
2022-10-11T19:36:14.385Z,74.83
2022-10-11T19:38:44.971Z,75.15
2022-10-11T19:41:13.594Z,75.35
2022-10-11T19:43:41.727Z,74.99
2022-10-11T19:46:13.138Z,74.69
2022-10-11T19:48:42.659Z,74.57
2022-10-11T19:51:15.346Z,75.11
2022-10-11T19:53:44.065Z,75.70
2022-10-11T19:56:14.003Z,75.23
2022-10-11T19:58:42.591Z,75.48
2022-10-11T20:01:13.444Z,74.84
2022-10-11T20:03:41.109Z,74.78
2022-10-11T20:06:10.082Z,75.42
2022-10-11T20:08:39.736Z,76.70
2022-10-11T20:11:09.964Z,75.80
2022-10-11T20:13:38.978Z,76.29
2022-10-11T20:16:09.194Z,76.02
2022-10-11T20:18:38.102Z,76.15
2022-10-11T20:21:08.750Z,76.51
2022-10-11T20:23:37.090Z,75.69
2022-10-11T20:26:08.390Z,76.30
2022-10-11T20:28:37.495Z,75.96
2022-10-11T20:31:11.663Z,76.35
2022-10-11T20:33:39.252Z,76.59
2022-10-11T20:36:08.722Z,76.74
2022-10-11T20:38:38.204Z,76.55
2022-10-11T20:41:08.560Z,76.58
2022-10-11T20:43:36.353Z,77.33
2022-10-11T20:46:07.209Z,77.12
2022-10-11T20:48:36.686Z,76.33
2022-10-11T20:51:04.741Z,75.38
2022-10-11T20:53:32.270Z,75.39
2022-10-11T20:55:59.842Z,74.94
2022-10-11T20:58:28.807Z,74.99
2022-10-11T21:00:56.481Z,75.69
2022-10-11T21:03:24.236Z,75.04
2022-10-11T21:05:58.960Z,75.23
2022-10-11T21:08:26.932Z,75.97
2022-10-11T21:10:55.561Z,75.35
2022-10-11T21:13:23.920Z,75.07
2022-10-11T21:15:52.893Z,76.45
2022-10-11T21:18:20.854Z,76.15
2022-10-11T21:20:48.719Z,76.41
2022-10-11T21:23:18.773Z,76.46
2022-10-11T21:25:46.418Z,76.14
2022-10-11T21:28:14.151Z,75.47
2022-10-11T21:30:41.869Z,76.24
2022-10-11T21:33:10.960Z,76.42
2022-10-11T21:35:39.670Z,76.85
2022-10-11T21:38:07.317Z,77.21
2022-10-11T21:40:40.767Z,76.95
2022-10-11T21:43:08.643Z,78.08
2022-10-11T21:45:40.769Z,78.80
2022-10-11T21:48:08.443Z,78.94
2022-10-11T21:50:39.002Z,79.05
2022-10-11T21:53:06.613Z,79.58
2022-10-11T21:58:09.387Z,79.16
2022-10-11T22:00:37.049Z,79.64
2022-10-11T22:08:23.240Z,80.71
2022-10-11T22:13:53.509Z,81.17
2022-10-11T22:16:21.241Z,81.65
2022-10-11T22:18:49.110Z,81.29
2022-10-11T22:21:18.521Z,81.44
2022-10-11T22:23:49.766Z,81.89
2022-10-11T22:26:19.372Z,82.18
2022-10-11T22:28:47.318Z,81.80
2022-10-11T22:31:16.429Z,81.58
2022-10-11T22:36:16.284Z,82.07
2022-10-11T22:38:44.750Z,82.71
2022-10-11T22:41:14.111Z,83.39
2022-10-11T22:43:41.850Z,83.42
2022-10-11T22:46:10.197Z,82.64
2022-10-11T22:48:37.983Z,82.82
2022-10-11T22:51:05.586Z,82.43
2022-10-11T22:53:33.597Z,82.33
2022-10-11T22:56:01.451Z,82.68
2022-10-11T22:58:30.464Z,83.78
2022-10-11T23:00:58.069Z,84.10
2022-10-11T23:03:25.885Z,84.58
2022-10-11T23:05:57.538Z,84.50
2022-10-11T23:08:25.507Z,84.74
2022-10-11T23:10:53.591Z,85.09
2022-10-11T23:13:21.531Z,85.39
2022-10-11T23:15:50.624Z,85.62
2022-10-11T23:18:18.474Z,84.44
2022-10-11T23:20:46.126Z,84.59
2022-10-11T23:23:13.833Z,84.66
2022-10-11T23:25:41.388Z,84.79
2022-10-11T23:28:09.053Z,85.86
2022-10-11T23:30:36.625Z,85.06
2022-10-11T23:33:05.584Z,84.68
2022-10-11T23:35:35.091Z,84.41
2022-10-11T23:38:02.750Z,84.97
2022-10-11T23:40:30.305Z,85.31
2022-10-11T23:42:58.905Z,85.43
2022-10-11T23:45:26.482Z,85.96
2022-10-11T23:47:54.031Z,86.55
2022-10-11T23:50:23.051Z,87.00
2022-10-11T23:52:50.693Z,87.11
2022-10-11T23:55:18.873Z,86.87
2022-10-11T23:57:46.449Z,86.83
